createdAt,value
2023-03-16T00:00:14.394Z,6.60
2023-03-16T00:02:42.656Z,7.33
2023-03-16T00:05:11.456Z,7.23
2023-03-16T00:07:42.006Z,7.40
2023-03-16T00:10:12.889Z,7.03
2023-03-16T00:12:43.714Z,7.57
2023-03-16T00:15:13.532Z,7.37
2023-03-16T00:17:41.808Z,7.70
2023-03-16T00:20:11.941Z,7.70
2023-03-16T00:22:41.927Z,8.20
2023-03-16T00:25:12.117Z,8.60
2023-03-16T00:27:40.654Z,8.80
2023-03-16T00:30:10.158Z,8.33
2023-03-16T00:32:40.010Z,8.73
2023-03-16T00:35:09.632Z,9.67
2023-03-16T00:37:39.688Z,9.43
2023-03-16T00:40:11.599Z,9.70
2023-03-16T00:42:40.377Z,9.53
2023-03-16T00:45:09.844Z,9.30
2023-03-16T00:47:38.409Z,8.17
2023-03-16T00:50:07.908Z,8.13
2023-03-16T00:52:36.418Z,7.50
2023-03-16T00:55:05.361Z,6.33
2023-03-16T00:57:34.775Z,5.73
2023-03-16T01:00:13.236Z,6.90
2023-03-16T01:02:42.173Z,6.03
2023-03-16T01:05:11.422Z,6.47
2023-03-16T01:07:39.701Z,6.33
2023-03-16T01:10:09.542Z,7.33
2023-03-16T01:12:39.562Z,7.60
2023-03-16T01:15:08.832Z,7.07
2023-03-16T01:17:37.346Z,7.03
2023-03-16T01:20:12.043Z,6.70
2023-03-16T01:22:40.613Z,6.47
2023-03-16T01:25:09.382Z,6.50
2023-03-16T01:27:39.482Z,7.17
2023-03-16T01:30:09.166Z,7.23
2023-03-16T01:32:37.289Z,6.77
2023-03-16T01:35:06.317Z,6.50
2023-03-16T01:37:35.008Z,6.57
2023-03-16T01:40:06.793Z,6.50
2023-03-16T01:42:47.571Z,7.27
2023-03-16T01:45:54.326Z,7.33
2023-03-16T01:48:25.047Z,8.13
2023-03-16T01:50:54.493Z,8.63
2023-03-16T01:53:24.549Z,8.13
2023-03-16T01:55:55.766Z,8.53
2023-03-16T01:58:25.661Z,8.83
2023-03-16T02:00:54.520Z,8.80
2023-03-16T02:03:23.648Z,9.20
2023-03-16T02:05:56.730Z,9.30
2023-03-16T02:08:26.556Z,9.87
2023-03-16T02:10:57.113Z,10.47
2023-03-16T02:13:29.596Z,11.33
2023-03-16T02:15:58.454Z,9.17
2023-03-16T02:18:26.632Z,7.63
2023-03-16T02:21:06.768Z,8.03
2023-03-16T02:23:34.828Z,8.50
2023-03-16T02:26:09.739Z,7.80
2023-03-16T02:28:48.615Z,6.67
2023-03-16T02:31:19.252Z,7.30
2023-03-16T02:33:51.406Z,8.37
2023-03-16T02:36:21.693Z,7.73
2023-03-16T02:38:50.257Z,6.83
2023-03-16T02:41:20.330Z,7.50
2023-03-16T02:43:52.728Z,7.70
2023-03-16T02:46:26.601Z,7.57
2023-03-16T02:49:03.450Z,6.33
2023-03-16T02:51:32.412Z,6.87
2023-03-16T02:54:01.062Z,7.33
2023-03-16T02:56:29.647Z,7.47
2023-03-16T02:58:58.441Z,6.77
2023-03-16T03:01:28.004Z,7.63
2023-03-16T03:03:56.601Z,6.83
2023-03-16T03:06:25.293Z,7.27
2023-03-16T03:08:54.368Z,7.20
2023-03-16T03:11:22.938Z,6.83
2023-03-16T03:13:51.710Z,7.20
2023-03-16T03:16:19.858Z,7.50
2023-03-16T03:18:50.300Z,7.30
2023-03-16T03:21:18.872Z,7.40
2023-03-16T03:23:47.045Z,7.47
2023-03-16T03:26:15.863Z,7.00
2023-03-16T03:28:45.081Z,7.23
2023-03-16T03:31:15.985Z,7.67
2023-03-16T03:33:44.594Z,6.77
2023-03-16T03:36:14.585Z,7.43
2023-03-16T03:38:44.717Z,7.27
2023-03-16T03:41:13.398Z,7.40
2023-03-16T03:43:42.376Z,8.07
2023-03-16T03:46:11.249Z,8.73
2023-03-16T03:48:39.396Z,8.67
2023-03-16T03:51:08.196Z,7.57
2023-03-16T03:53:37.805Z,7.43
2023-03-16T03:56:06.253Z,7.30
2023-03-16T03:58:34.870Z,7.20
2023-03-16T04:01:02.954Z,6.90
2023-03-16T04:03:31.692Z,6.83
2023-03-16T04:05:59.869Z,8.03
2023-03-16T04:08:28.422Z,8.80
2023-03-16T04:10:58.379Z,9.07
2023-03-16T04:13:26.903Z,8.27
2023-03-16T04:15:58.709Z,7.67
2023-03-16T04:18:27.601Z,7.73
2023-03-16T04:20:55.839Z,8.67
2023-03-16T04:23:26.250Z,8.07
2023-03-16T04:25:55.320Z,7.57
2023-03-16T04:28:26.405Z,8.00
2023-03-16T04:30:56.546Z,7.07
2023-03-16T04:33:24.796Z,7.37
2023-03-16T04:35:53.263Z,7.07
2023-03-16T04:38:22.651Z,8.17
2023-03-16T04:40:51.224Z,7.70
2023-03-16T04:43:19.754Z,7.63
2023-03-16T04:45:49.964Z,7.80
2023-03-16T04:48:18.047Z,8.43
2023-03-16T04:50:47.335Z,8.50
2023-03-16T04:53:15.528Z,8.97
2023-03-16T04:55:45.893Z,9.30
2023-03-16T04:58:17.506Z,9.23
2023-03-16T05:00:46.086Z,9.17
2023-03-16T05:03:15.999Z,8.80
2023-03-16T05:05:45.886Z,9.03
2023-03-16T05:08:14.488Z,9.00
2023-03-16T05:10:42.689Z,9.97
2023-03-16T05:13:10.766Z,9.50
2023-03-16T05:15:39.456Z,9.43
2023-03-16T05:18:07.582Z,9.63
2023-03-16T05:20:37.557Z,9.57
2023-03-16T05:23:07.548Z,9.13
2023-03-16T05:25:36.488Z,9.10
2023-03-16T05:28:05.929Z,8.70
2023-03-16T05:30:33.996Z,8.80
2023-03-16T05:33:02.652Z,8.67
2023-03-16T05:35:31.538Z,8.80
2023-03-16T05:38:01.576Z,8.40
2023-03-16T05:40:30.418Z,9.00
2023-03-16T05:43:00.409Z,8.93
2023-03-16T05:45:29.183Z,8.00
2023-03-16T05:47:57.989Z,9.40
2023-03-16T05:50:26.791Z,9.27
2023-03-16T05:52:55.793Z,8.93
2023-03-16T05:55:25.275Z,9.23
2023-03-16T05:57:53.831Z,9.20
2023-03-16T06:00:22.910Z,9.07
2023-03-16T06:02:52.820Z,8.47
2023-03-16T06:05:24.902Z,8.80
2023-03-16T06:07:53.510Z,8.50
2023-03-16T06:10:22.439Z,9.23
2023-03-16T06:12:51.892Z,8.07
2023-03-16T06:15:20.781Z,8.80
2023-03-16T06:17:49.375Z,9.13
2023-03-16T06:20:17.641Z,8.30
2023-03-16T06:22:46.224Z,8.97
2023-03-16T06:25:15.797Z,8.57
2023-03-16T06:27:44.499Z,10.67
2023-03-16T06:30:16.179Z,10.50
2023-03-16T06:32:45.955Z,10.13
2023-03-16T06:35:15.149Z,13.93
2023-03-16T06:37:44.188Z,13.83
2023-03-16T06:40:13.436Z,13.10
2023-03-16T06:42:41.705Z,12.13
2023-03-16T06:45:11.548Z,10.43
2023-03-16T06:47:41.196Z,10.73
2023-03-16T06:50:10.832Z,9.83
2023-03-16T06:52:38.963Z,10.23
2023-03-16T06:55:08.826Z,10.67
2023-03-16T06:57:36.922Z,11.53
2023-03-16T07:00:07.927Z,11.07
2023-03-16T07:02:36.052Z,11.00
2023-03-16T07:05:06.525Z,10.63
2023-03-16T07:07:34.750Z,11.10
2023-03-16T07:10:03.387Z,9.33
2023-03-16T07:12:32.060Z,9.27
2023-03-16T07:15:01.682Z,7.73
2023-03-16T07:17:29.773Z,8.13
2023-03-16T07:19:58.353Z,7.63
2023-03-16T07:22:27.877Z,7.50
2023-03-16T07:24:57.949Z,7.00
2023-03-16T07:27:26.562Z,7.43
2023-03-16T07:29:54.922Z,7.43
2023-03-16T07:32:23.606Z,8.03
2023-03-16T07:34:51.792Z,8.63
2023-03-16T07:37:25.446Z,7.77
2023-03-16T07:39:55.625Z,8.23
2023-03-16T07:42:23.864Z,8.10
2023-03-16T07:44:52.198Z,7.40
2023-03-16T07:47:21.126Z,8.00
2023-03-16T07:49:49.736Z,7.90
2023-03-16T07:52:18.091Z,7.60
2023-03-16T07:54:46.700Z,7.33
2023-03-16T07:57:16.794Z,7.13
2023-03-16T07:59:45.141Z,6.83
2023-03-16T08:02:15.317Z,7.27
2023-03-16T08:04:43.548Z,7.17
2023-03-16T08:07:11.887Z,7.17
2023-03-16T08:09:40.266Z,6.70
2023-03-16T08:12:10.169Z,6.87
2023-03-16T08:14:40.322Z,6.43
2023-03-16T08:17:08.462Z,6.73
2023-03-16T08:19:37.075Z,5.87
2023-03-16T08:22:05.708Z,7.23
2023-03-16T08:24:34.726Z,6.67
2023-03-16T08:27:03.663Z,6.47
2023-03-16T08:29:34.865Z,7.40
2023-03-16T08:32:04.464Z,6.93
2023-03-16T08:34:33.129Z,6.70
2023-03-16T08:37:01.826Z,6.50
2023-03-16T08:39:30.149Z,6.13
2023-03-16T08:41:58.726Z,6.07
2023-03-16T08:44:27.939Z,5.10
2023-03-16T08:46:56.082Z,5.43
2023-03-16T08:49:26.129Z,5.20
2023-03-16T08:51:54.416Z,5.50
2023-03-16T08:54:22.904Z,5.67
2023-03-16T08:56:51.821Z,7.13
2023-03-16T08:59:29.434Z,8.13
2023-03-16T09:01:59.241Z,6.77
2023-03-16T09:04:30.040Z,5.93
2023-03-16T09:07:08.424Z,5.30
2023-03-16T09:09:38.291Z,4.90
2023-03-16T09:12:07.713Z,4.53
2023-03-16T09:14:37.687Z,5.00
2023-03-16T09:17:07.790Z,4.20
2023-03-16T09:19:50.532Z,4.63
2023-03-16T09:22:19.682Z,4.73
2023-03-16T09:24:48.477Z,4.77
2023-03-16T09:27:16.992Z,4.13
2023-03-16T09:29:46.170Z,4.00
2023-03-16T09:32:14.687Z,4.10
2023-03-16T09:34:45.265Z,3.73
2023-03-16T09:37:13.807Z,3.37
2023-03-16T09:39:42.368Z,4.07
2023-03-16T09:42:19.252Z,3.70
2023-03-16T09:44:58.155Z,4.10
2023-03-16T09:47:30.780Z,3.60
2023-03-16T09:50:03.965Z,3.10
2023-03-16T09:52:42.062Z,3.00
2023-03-16T09:55:24.696Z,3.17
2023-03-16T09:57:55.048Z,2.80
2023-03-16T10:00:26.157Z,2.33
2023-03-16T10:03:12.944Z,2.10
2023-03-16T10:05:43.065Z,3.20
2023-03-16T10:08:17.271Z,3.03
2023-03-16T10:11:07.480Z,2.80
2023-03-16T10:13:41.803Z,2.40
2023-03-16T10:16:14.710Z,2.80
2023-03-16T10:18:47.558Z,2.50
2023-03-16T10:21:18.598Z,2.70
2023-03-16T10:23:49.055Z,2.20
2023-03-16T10:26:22.992Z,2.60
2023-03-16T10:28:53.401Z,2.57
2023-03-16T10:31:24.874Z,2.03
2023-03-16T10:33:58.928Z,2.10
2023-03-16T10:36:34.017Z,2.13
2023-03-16T10:39:05.898Z,2.47
2023-03-16T10:41:36.720Z,2.10
2023-03-16T10:44:12.461Z,1.97
2023-03-16T10:46:43.508Z,2.57
2023-03-16T10:49:23.376Z,2.03
2023-03-16T10:51:55.397Z,2.33
2023-03-16T10:54:31.057Z,2.17
2023-03-16T10:57:00.527Z,2.30
2023-03-16T10:59:34.414Z,2.17
2023-03-16T11:02:04.378Z,2.22
2023-03-16T11:04:34.329Z,2.13
2023-03-16T11:07:04.330Z,2.03
2023-03-16T11:09:34.768Z,1.90
2023-03-16T11:12:15.896Z,1.77
2023-03-16T11:14:49.052Z,2.10
2023-03-16T11:17:22.982Z,1.90
2023-03-16T11:19:54.832Z,2.20
2023-03-16T11:22:26.778Z,2.05
2023-03-16T11:25:14.002Z,2.50
2023-03-16T11:27:47.562Z,1.90
2023-03-16T11:30:21.124Z,2.35
2023-03-16T11:32:53.310Z,1.90
2023-03-16T11:35:26.610Z,2.63
2023-03-16T11:38:10.527Z,2.28
2023-03-16T11:40:47.897Z,2.42
2023-03-16T11:43:38.553Z,1.92
2023-03-16T11:46:17.232Z,2.35
2023-03-16T11:48:51.742Z,2.25
2023-03-16T11:51:36.724Z,2.50
2023-03-16T11:54:28.287Z,2.38
2023-03-16T11:57:01.294Z,2.10
2023-03-16T12:00:08.243Z,2.10
2023-03-16T12:02:56.690Z,2.53
2023-03-16T12:05:56.144Z,2.17
2023-03-16T12:09:01.056Z,2.13
2023-03-16T12:11:35.973Z,2.30
2023-03-16T12:14:18.305Z,2.20
2023-03-16T12:16:53.589Z,2.13
2023-03-16T12:19:26.985Z,2.10
2023-03-16T12:22:04.751Z,2.25
2023-03-16T12:24:38.076Z,2.03
2023-03-16T12:27:11.865Z,2.53
2023-03-16T12:29:50.398Z,2.28
2023-03-16T12:32:27.990Z,2.17
2023-03-16T12:35:05.875Z,2.40
2023-03-16T12:37:39.364Z,2.10
2023-03-16T12:40:29.952Z,2.00
2023-03-16T12:43:10.490Z,3.65
2023-03-16T12:45:43.377Z,2.67
2023-03-16T12:48:21.701Z,2.60
2023-03-16T12:50:52.498Z,2.30
2023-03-16T12:53:40.377Z,2.70
2023-03-16T12:56:12.380Z,2.15
2023-03-16T12:58:48.621Z,2.05
2023-03-16T13:01:20.369Z,2.28
2023-03-16T13:03:50.641Z,2.33
2023-03-16T13:06:22.105Z,2.25
2023-03-16T13:08:55.333Z,2.65
2023-03-16T13:11:24.739Z,2.20
2023-03-16T13:14:09.886Z,2.05
2023-03-16T13:16:39.174Z,2.08
2023-03-16T13:19:26.916Z,1.92
2023-03-16T13:22:18.948Z,2.17
2023-03-16T13:24:53.076Z,2.17
2023-03-16T13:27:28.875Z,2.20
2023-03-16T13:30:02.513Z,2.40
2023-03-16T13:32:33.529Z,2.10
2023-03-16T13:35:06.287Z,2.30
2023-03-16T13:37:34.850Z,2.22
2023-03-16T13:40:05.241Z,2.08
2023-03-16T13:42:34.681Z,1.80
2023-03-16T13:45:15.258Z,2.00
2023-03-16T13:47:44.864Z,1.55
2023-03-16T13:50:15.349Z,1.90
2023-03-16T13:52:44.734Z,2.00
2023-03-16T13:55:18.653Z,1.70
2023-03-16T13:57:47.601Z,2.03
2023-03-16T14:00:20.734Z,2.10
2023-03-16T14:02:52.627Z,2.10
2023-03-16T14:05:25.009Z,2.30
2023-03-16T14:07:54.819Z,2.10
2023-03-16T14:10:24.586Z,3.95
2023-03-16T14:12:55.197Z,16.52
2023-03-16T14:15:31.061Z,4.78
2023-03-16T14:18:14.280Z,3.35
2023-03-16T14:20:42.882Z,2.67
2023-03-16T14:23:19.618Z,2.17
2023-03-16T14:25:49.638Z,1.85
2023-03-16T14:28:20.720Z,1.50
2023-03-16T14:30:54.709Z,1.83
2023-03-16T14:33:31.391Z,1.80
2023-03-16T14:36:01.560Z,1.88
2023-03-16T14:38:33.608Z,2.08
2023-03-16T14:41:07.646Z,1.73
2023-03-16T14:43:38.847Z,1.88
2023-03-16T14:46:09.644Z,1.85
2023-03-16T14:48:39.303Z,1.70
2023-03-16T14:51:08.515Z,3.45
2023-03-16T14:53:37.278Z,2.47
2023-03-16T14:56:06.928Z,2.42
2023-03-16T14:58:36.952Z,2.38
2023-03-16T15:01:06.398Z,2.22
2023-03-16T15:03:38.513Z,5.07
2023-03-16T15:06:06.950Z,4.43
2023-03-16T15:08:44.215Z,3.40
2023-03-16T15:11:13.012Z,3.47
2023-03-16T15:13:55.552Z,2.50
2023-03-16T15:16:24.524Z,3.00
2023-03-16T15:18:53.954Z,2.70
2023-03-16T15:21:24.262Z,4.25
2023-03-16T15:23:52.942Z,4.47
2023-03-16T15:26:26.311Z,3.20
2023-03-16T15:28:54.811Z,3.45
2023-03-16T15:31:23.236Z,5.00
2023-03-16T15:33:51.640Z,5.65
2023-03-16T15:36:24.712Z,5.93
2023-03-16T15:38:55.553Z,4.03
2023-03-16T15:41:26.961Z,3.47
2023-03-16T15:44:01.254Z,4.65
2023-03-16T15:46:29.697Z,3.58
2023-03-16T15:48:57.823Z,5.05
2023-03-16T15:51:29.588Z,3.75
2023-03-16T15:54:00.256Z,2.92
2023-03-16T15:56:32.356Z,2.60
2023-03-16T15:59:04.530Z,2.70
2023-03-16T16:01:40.070Z,2.85
2023-03-16T16:04:13.331Z,3.20
2023-03-16T16:06:44.108Z,2.33
2023-03-16T16:09:12.954Z,3.15
2023-03-16T16:11:42.310Z,2.50
2023-03-16T16:14:14.525Z,2.80
2023-03-16T16:16:44.845Z,2.78
2023-03-16T16:19:14.808Z,3.10
2023-03-16T16:21:44.852Z,3.13
2023-03-16T16:24:12.911Z,3.08
2023-03-16T16:26:53.247Z,3.20
2023-03-16T16:29:24.274Z,2.72
2023-03-16T16:31:52.765Z,3.75
2023-03-16T16:34:25.271Z,3.67
2023-03-16T16:36:56.054Z,3.47
2023-03-16T16:39:25.519Z,3.53
2023-03-16T16:41:56.741Z,3.58
2023-03-16T16:44:28.390Z,3.15
2023-03-16T16:46:56.659Z,2.80
2023-03-16T16:49:27.039Z,5.57
2023-03-16T16:51:56.844Z,5.10
2023-03-16T16:54:27.596Z,4.28
2023-03-16T16:56:57.358Z,4.68
2023-03-16T16:59:28.000Z,4.35
2023-03-16T17:01:56.682Z,5.40
2023-03-16T17:04:27.259Z,10.25
2023-03-16T17:07:00.900Z,10.05
2023-03-16T17:09:30.595Z,8.40
2023-03-16T17:12:01.516Z,6.03
2023-03-16T17:14:31.399Z,6.32
2023-03-16T17:17:03.067Z,5.43
2023-03-16T17:19:31.649Z,6.35
2023-03-16T17:22:01.522Z,5.07
2023-03-16T17:24:30.534Z,5.10
2023-03-16T17:27:01.498Z,3.97
2023-03-16T17:29:32.533Z,3.83
2023-03-16T17:32:01.271Z,4.00
2023-03-16T17:34:31.846Z,4.32
2023-03-16T17:37:03.804Z,4.88
2023-03-16T17:39:33.922Z,4.03
2023-03-16T17:42:06.638Z,4.65
2023-03-16T17:44:37.118Z,4.78
2023-03-16T17:47:13.101Z,4.28
2023-03-16T17:49:41.206Z,4.60
2023-03-16T17:52:18.580Z,4.07
2023-03-16T17:54:48.040Z,3.95
2023-03-16T17:57:19.049Z,4.68
2023-03-16T17:59:48.819Z,19.55
2023-03-16T18:02:39.500Z,29.40
2023-03-16T18:05:10.377Z,20.88
2023-03-16T18:07:40.380Z,12.73
2023-03-16T18:10:12.309Z,14.73
2023-03-16T18:12:40.535Z,11.75
2023-03-16T18:15:15.556Z,8.80
2023-03-16T18:17:45.098Z,8.15
2023-03-16T18:20:22.875Z,7.50
2023-03-16T18:22:52.797Z,7.05
2023-03-16T18:25:31.554Z,5.68
2023-03-16T18:28:00.557Z,5.97
2023-03-16T18:30:30.188Z,5.57
2023-03-16T18:33:00.613Z,8.80
2023-03-16T18:35:29.048Z,7.80
2023-03-16T18:38:02.153Z,16.85
2023-03-16T18:40:31.084Z,10.13
2023-03-16T18:42:59.374Z,9.93
2023-03-16T18:45:29.338Z,8.25
2023-03-16T18:47:58.638Z,15.32
2023-03-16T18:50:30.717Z,10.35
2023-03-16T18:53:00.225Z,16.58
2023-03-16T18:55:29.430Z,12.15
2023-03-16T18:57:58.746Z,9.90
2023-03-16T19:00:29.718Z,10.35
2023-03-16T19:03:01.913Z,8.70
2023-03-16T19:05:35.870Z,6.97
2023-03-16T19:08:06.890Z,4.90
2023-03-16T19:10:37.925Z,5.07
2023-03-16T19:13:15.091Z,5.68
2023-03-16T19:15:43.738Z,5.07
2023-03-16T19:18:12.502Z,4.47
2023-03-16T19:20:43.259Z,5.93
2023-03-16T19:23:20.384Z,5.60
2023-03-16T19:25:49.210Z,8.13
2023-03-16T19:28:23.624Z,7.18
2023-03-16T19:30:53.231Z,8.67
2023-03-16T19:33:25.797Z,6.67
2023-03-16T19:35:55.036Z,7.93
2023-03-16T19:38:26.364Z,11.30
2023-03-16T19:40:57.682Z,10.67
2023-03-16T19:43:28.217Z,8.03
2023-03-16T19:45:56.779Z,6.37
2023-03-16T19:48:32.574Z,5.23
2023-03-16T19:51:01.621Z,4.87
2023-03-16T19:53:31.289Z,4.60
2023-03-16T19:55:59.388Z,4.43
2023-03-16T19:58:32.562Z,4.88
2023-03-16T20:01:01.204Z,5.10
2023-03-16T20:03:29.966Z,4.40
2023-03-16T20:05:58.940Z,4.53
2023-03-16T20:08:28.784Z,4.90
2023-03-16T20:11:07.312Z,4.27
2023-03-16T20:13:36.286Z,4.77
2023-03-16T20:16:05.302Z,3.87
2023-03-16T20:18:34.217Z,4.13
2023-03-16T20:21:02.286Z,3.73
2023-03-16T20:23:31.771Z,4.63
2023-03-16T20:26:03.167Z,3.83
2023-03-16T20:28:35.950Z,3.73
2023-03-16T20:31:08.078Z,3.57
2023-03-16T20:33:37.137Z,3.80
2023-03-16T20:36:05.697Z,4.23
2023-03-16T20:38:33.935Z,3.87
2023-03-16T20:41:03.443Z,3.90
2023-03-16T20:43:33.519Z,3.23
2023-03-16T20:46:03.952Z,3.53
2023-03-16T20:48:32.754Z,3.77
2023-03-16T20:51:01.523Z,4.17
2023-03-16T20:53:30.163Z,3.83
2023-03-16T20:55:58.394Z,3.87
2023-03-16T20:58:29.523Z,3.97
2023-03-16T21:00:58.310Z,4.17
2023-03-16T21:03:28.531Z,4.67
2023-03-16T21:06:00.600Z,4.53
2023-03-16T21:08:29.427Z,4.57
2023-03-16T21:11:00.297Z,4.30
2023-03-16T21:13:32.900Z,4.27
2023-03-16T21:16:03.345Z,3.93
2023-03-16T21:18:33.139Z,4.37
2023-03-16T21:21:01.937Z,4.50
2023-03-16T21:23:30.090Z,3.80
2023-03-16T21:26:00.620Z,3.63
2023-03-16T21:28:33.631Z,3.53
2023-03-16T21:31:02.985Z,3.17
2023-03-16T21:33:34.290Z,3.20
2023-03-16T21:36:03.378Z,3.00
2023-03-16T21:38:33.594Z,3.47
2023-03-16T21:41:02.789Z,3.37
2023-03-16T21:43:32.303Z,3.20
2023-03-16T21:46:01.548Z,3.63
2023-03-16T21:48:36.360Z,3.80
2023-03-16T21:51:07.863Z,3.43
2023-03-16T21:53:36.363Z,3.57
2023-03-16T21:56:05.178Z,3.33
2023-03-16T21:58:35.091Z,3.60
2023-03-16T22:01:04.450Z,3.43
2023-03-16T22:03:50.792Z,3.60
2023-03-16T22:06:19.554Z,3.27
2023-03-16T22:08:48.103Z,2.93
2023-03-16T22:11:18.576Z,3.47
2023-03-16T22:13:48.569Z,3.10
2023-03-16T22:16:18.698Z,3.17
2023-03-16T22:18:49.631Z,3.27
2023-03-16T22:21:29.089Z,3.30
2023-03-16T22:23:59.735Z,3.43
2023-03-16T22:26:28.930Z,3.30
2023-03-16T22:29:01.076Z,2.97
2023-03-16T22:31:33.811Z,3.13
2023-03-16T22:34:02.919Z,3.10
2023-03-16T22:36:33.690Z,3.37
2023-03-16T22:39:05.074Z,3.20
2023-03-16T22:41:33.238Z,3.27
2023-03-16T22:44:03.450Z,3.30
2023-03-16T22:46:32.013Z,2.90
2023-03-16T22:49:00.535Z,3.07
2023-03-16T22:51:33.071Z,2.90
2023-03-16T22:54:06.318Z,3.20
2023-03-16T22:56:35.750Z,3.23
2023-03-16T22:59:08.576Z,3.33
2023-03-16T23:01:40.294Z,3.10
2023-03-16T23:04:15.598Z,3.10
2023-03-16T23:06:44.625Z,3.10
2023-03-16T23:09:15.898Z,2.80
2023-03-16T23:11:46.828Z,3.07
2023-03-16T23:14:21.694Z,3.20
2023-03-16T23:16:52.500Z,3.10
2023-03-16T23:19:25.291Z,2.90
2023-03-16T23:21:55.608Z,2.97
2023-03-16T23:24:23.843Z,3.23
2023-03-16T23:26:53.817Z,3.13
2023-03-16T23:29:24.371Z,2.67
2023-03-16T23:31:54.208Z,3.10
2023-03-16T23:34:25.388Z,3.10
2023-03-16T23:36:54.221Z,3.10
2023-03-16T23:39:22.949Z,2.70
2023-03-16T23:41:51.656Z,3.37
2023-03-16T23:44:24.987Z,3.20
2023-03-16T23:46:53.747Z,3.13
2023-03-16T23:49:24.622Z,3.20
2023-03-16T23:51:53.777Z,3.60
2023-03-16T23:54:23.440Z,3.47
2023-03-16T23:56:52.786Z,2.70
2023-03-16T23:59:23.557Z,3.07
